KECG/ECG METAR and TAF weather

Enter ICAO airport designator
Station Type Date Time Source
KECG METAR 2020/07/09 06:54 UTC NOAA

KECG 090654Z AUTO 08006KT 10SM CLR 26/24 A2987 RMK AO2 SLP116 T02610244


Station Type Date Time Source
KECG Decoded METAR 2020/07/09 06:54 UTC NOAA

ELIZABETH CITY C/G REGN AIRPORT , NC, United States (KECG) 36-15N 076-10W 11M
Jul 09, 2020 - 02:54 AM EDT / 2020.07.09 0654 UTC
Wind: from the E (080 degrees) at 7 MPH (6 KT):0
Visibility: 10 mile(s):0
Sky conditions: clear
Temperature: 79.0 F (26.1 C)
Dew Point: 75.9 F (24.4 C)
Relative Humidity: 90%
Pressure (altimeter): 29.87 in. Hg (1011 hPa)
ob: KECG 090654Z AUTO 08006KT 10SM CLR 26/24 A2987 RMK AO2 SLP116 T02610244
cycle: 7

Station Type Date Time Source
KECG TAF 2020/07/09 06:24 UTC NOAA

TAF KECG 090521Z 0906/1006 08008KT P6SM VCSH SCT015 BKN100
TEMPO 0907/0911 BKN015
FM091400 06012G20KT 6SM SHRA BKN035
FM092300 02013G20KT 4SM +SHRA BKN030
FM100500 31009KT 5SM SHRA BKN035

Example: see airport list